KBOS/BOS METAR and TAF weather

Enter ICAO airport designator
Station Type Date Time Source
KBOS METAR 2021/10/20 05:54 UTC NOAA

KBOS 200554Z 24007KT 10SM CLR 12/04 A2981 RMK AO2 SLP093 T01220044 10150 20117 55002


Station Type Date Time Source
KBOS Decoded METAR 2021/10/20 05:54 UTC NOAA

BOSTON LOGAN INTERNATIONAL, MA, United States (KBOS) 42-22N 071-01W 54M
Oct 20, 2021 - 01:54 AM EDT / 2021.10.20 0554 UTC
Wind: from the WSW (240 degrees) at 8 MPH (7 KT):0
Visibility: 10 mile(s):0
Sky conditions: clear
Temperature: 54.0 F (12.2 C)
Dew Point: 39.9 F (4.4 C)
Relative Humidity: 58%
Pressure (altimeter): 29.81 in. Hg (1009 hPa)
Pressure tendency: 0.01 inches (0.2 hPa) lower than three hours ago
ob: KBOS 200554Z 24007KT 10SM CLR 12/04 A2981 RMK AO2 SLP093 T01220044 10150 20117 55002
cycle: 6

Station Type Date Time Source
KBOS TAF 2021/10/20 06:30 UTC NOAA

TAF KBOS 200525Z 2006/2112 27010KT P6SM FEW060 BKN120
FM201400 31010KT P6SM SCT200
FM202000 35005KT P6SM SCT250
FM202300 04007KT P6SM BKN250
FM210300 24007KT P6SM BKN250

Example: see airport list